Time,TemperatureF,DewpointF,PressureIn,WindDirection,WindDirectionDegrees,WindSpeedMPH,WindSpeedGustMPH,Humidity,HourlyPrecipIn,Conditions,Clouds,dailyrainin,SoftwareType,DateUTC
2015-07-29 00:00:00,75.1,14.9,30.03,NE,45,0.0,0.9,1,0.00,,,0.00,WUHU216HW,2015-07-29 04:00:00,
2015-07-29 00:05:00,74.9,14.7,30.02,NE,45,0.0,0.9,1,0.00,,,0.00,WUHU216HW,2015-07-29 04:05:00,
2015-07-29 00:10:00,74.9,14.7,30.03,NE,45,0.0,0.0,1,0.00,,,0.00,WUHU216HW,2015-07-29 04:10:00,
2015-07-29 00:15:00,75.1,14.9,30.03,NE,45,0.0,0.0,1,0.00,,,0.00,WUHU216HW,2015-07-29 04:15:00,
2015-07-29 00:20:00,75.1,14.9,30.03,NE,45,0.0,0.0,1,0.00,,,0.00,WUHU216HW,2015-07-29 04:20:00,
2015-07-29 00:25:00,75.1,14.9,30.03,NE,45,0.0,0.0,1,0.00,,,0.00,WUHU216HW,2015-07-29 04:25:00,
2015-07-29 00:30:00,75.2,14.9,30.03,South,180,0.0,0.0,1,0.00,,,0.00,WUHU216HW,2015-07-29 04:30:00,
2015-07-29 00:35:00,75.2,14.9,30.03,South,180,0.0,0.0,1,0.00,,,0.00,WUHU216HW,2015-07-29 04:35:00,
2015-07-29 00:40:00,75.2,14.9,30.03,South,180,0.0,0.0,1,0.00,,,0.00,WUHU216HW,2015-07-29 04:40:00,
2015-07-29 00:45:00,75.2,14.9,30.03,South,180,0.0,0.0,1,0.00,,,0.00,WUHU216HW,2015-07-29 04:45:00,
2015-07-29 00:50:00,75.2,14.9,30.02,South,180,0.0,0.0,1,0.00,,,0.00,WUHU216HW,2015-07-29 04:50:00,
2015-07-29 00:55:00,75.2,14.9,30.03,South,180,0.0,0.0,1,0.00,,,0.00,WUHU216HW,2015-07-29 04:55:00,
2015-07-29 01:00:00,75.2,14.9,30.03,South,180,0.0,0.0,1,0.00,,,0.00,WUHU216HW,2015-07-29 05:00:00,
2015-07-29 01:05:00,75.2,14.9,30.02,South,180,0.0,0.0,1,0.00,,,0.00,WUHU216HW,2015-07-29 05:05:00,
2015-07-29 01:10:00,75.4,15.1,30.02,South,180,0.0,0.0,1,0.00,,,0.00,WUHU216HW,2015-07-29 05:10:00,
2015-07-29 01:15:00,75.4,15.1,30.02,South,180,0.0,0.0,1,0.00,,,0.00,WUHU216HW,2015-07-29 05:15:00,
2015-07-29 01:20:00,75.2,14.9,30.02,South,180,0.0,0.0,1,0.00,,,0.00,WUHU216HW,2015-07-29 05:20:00,
2015-07-29 01:25:00,75.2,14.9,30.02,South,180,0.0,0.0,1,0.00,,,0.00,WUHU216HW,2015-07-29 05:25:00,
2015-07-29 01:30:00,75.2,14.9,30.02,South,180,0.0,0.0,1,0.00,,,0.00,WUHU216HW,2015-07-29 05:30:00,
2015-07-29 01:35:00,75.2,14.9,30.02,South,180,0.0,0.0,1,0.00,,,0.00,WUHU216HW,2015-07-29 05:35:00,
2015-07-29 01:40:00,75.2,14.9,30.02,South,180,0.0,0.0,1,0.00,,,0.00,WUHU216HW,2015-07-29 05:40:00,
2015-07-29 01:45:00,75.1,14.9,30.02,South,180,0.0,0.0,1,0.00,,,0.00,WUHU216HW,2015-07-29 05:45:00,
2015-07-29 01:50:00,75.1,14.9,30.02,South,180,0.0,0.0,1,0.00,,,0.00,WUHU216HW,2015-07-29 05:50:00,
2015-07-29 01:55:00,75.1,14.9,30.02,NE,45,0.0,0.4,1,0.00,,,0.00,WUHU216HW,2015-07-29 05:55:00,
2015-07-29 02:00:00,75.1,14.9,30.02,NE,45,0.0,0.4,1,0.00,,,0.00,WUHU216HW,2015-07-29 06:00:00,
2015-07-29 02:01:00,75.1,14.9,30.02,NE,45,0.0,0.0,1,0.00,,,0.00,WUHU216HW,2015-07-29 06:01:00,
2015-07-29 02:05:00,75.1,14.9,30.02,NE,45,0.0,0.0,1,0.00,,,0.00,WUHU216HW,2015-07-29 06:05:00,
2015-07-29 02:10:00,75.1,14.9,30.02,NE,45,0.0,0.0,1,0.00,,,0.00,WUHU216HW,2015-07-29 06:10:00,
2015-07-29 02:31:00,75.1,14.9,30.02,NE,45,0.0,0.0,1,0.00,,,0.00,WUHU216HW,2015-07-29 06:31:00,
2015-07-29 02:36:00,75.1,14.9,30.02,NE,45,0.0,0.0,1,0.00,,,0.00,WUHU216HW,2015-07-29 06:36:00,
2015-07-29 02:41:00,75.2,14.9,30.02,NE,45,0.0,0.0,1,0.00,,,0.00,WUHU216HW,2015-07-29 06:41:00,
2015-07-29 02:46:00,75.2,14.9,30.02,NE,45,0.0,0.0,1,0.00,,,0.00,WUHU216HW,2015-07-29 06:46:00,
2015-07-29 02:51:00,75.1,14.9,30.02,NE,45,0.0,0.0,1,0.00,,,0.00,WUHU216HW,2015-07-29 06:51:00,
2015-07-29 02:56:00,75.1,14.9,30.01,NE,45,0.0,0.0,1,0.00,,,0.00,WUHU216HW,2015-07-29 06:56:00,
2015-07-29 03:01:00,75.1,14.9,30.01,NE,45,0.0,0.0,1,0.00,,,0.00,WUHU216HW,2015-07-29 07:01:00,
2015-07-29 03:06:00,75.1,14.9,30.01,NE,45,0.0,0.0,1,0.00,,,0.00,WUHU216HW,2015-07-29 07:06:00,
2015-07-29 03:11:00,75.1,14.9,30.01,NE,45,0.0,0.0,1,0.00,,,0.00,WUHU216HW,2015-07-29 07:11:00,
2015-07-29 03:16:00,75.1,14.9,30.01,NE,45,0.0,0.0,1,0.00,,,0.00,WUHU216HW,2015-07-29 07:16:00,
2015-07-29 03:21:00,75.1,14.9,30.00,NE,45,0.0,0.0,1,0.00,,,0.00,WUHU216HW,2015-07-29 07:21:00,
2015-07-29 03:26:00,75.1,14.9,30.01,NE,45,0.0,0.0,1,0.00,,,0.00,WUHU216HW,2015-07-29 07:26:00,
2015-07-29 03:31:00,74.9,14.7,30.00,NE,45,0.0,0.7,1,0.00,,,0.00,WUHU216HW,2015-07-29 07:31:00,
2015-07-29 03:36:00,74.9,14.7,30.00,NE,45,0.0,0.7,1,0.00,,,0.00,WUHU216HW,2015-07-29 07:36:00,
2015-07-29 03:41:00,74.9,14.7,30.00,NE,45,0.0,0.0,1,0.00,,,0.00,WUHU216HW,2015-07-29 07:41:00,
2015-07-29 03:46:00,74.9,14.7,30.00,NE,45,0.0,0.0,1,0.00,,,0.00,WUHU216HW,2015-07-29 07:46:00,
2015-07-29 03:51:00,74.9,14.7,30.00,NE,45,0.0,0.0,1,0.00,,,0.00,WUHU216HW,2015-07-29 07:51:00,
2015-07-29 03:56:00,74.9,14.7,30.00,NE,45,0.0,0.0,1,0.00,,,0.00,WUHU216HW,2015-07-29 07:56:00,
2015-07-29 04:01:00,74.9,14.7,30.00,NE,45,0.0,0.0,1,0.00,,,0.00,WUHU216HW,2015-07-29 08:01:00,
2015-07-29 04:06:00,74.9,14.7,30.00,NE,45,0.0,0.0,1,0.00,,,0.00,WUHU216HW,2015-07-29 08:06:00,
2015-07-29 04:11:00,74.9,14.7,30.00,NE,45,0.0,0.0,1,0.00,,,0.00,WUHU216HW,2015-07-29 08:11:00,
2015-07-29 04:16:00,74.7,14.6,30.00,NE,45,0.0,0.4,1,0.00,,,0.00,WUHU216HW,2015-07-29 08:16:00,
2015-07-29 04:21:00,74.7,14.6,29.99,NNE,23,0.0,0.4,1,0.00,,,0.00,WUHU216HW,2015-07-29 08:21:00,
2015-07-29 04:26:00,74.7,14.6,29.99,NNE,23,0.0,0.4,1,0.00,,,0.00,WUHU216HW,2015-07-29 08:26:00,
2015-07-29 04:31:00,74.7,14.6,30.00,NNE,23,0.0,0.0,1,0.00,,,0.00,WUHU216HW,2015-07-29 08:31:00,
2015-07-29 04:36:00,74.7,14.6,30.00,NNE,23,0.0,0.0,1,0.00,,,0.00,WUHU216HW,2015-07-29 08:36:00,
2015-07-29 04:41:00,74.9,14.7,30.00,NNE,23,0.4,0.4,1,0.00,,,0.00,WUHU216HW,2015-07-29 08:41:00,
2015-07-29 04:46:00,74.9,14.7,30.00,NNE,23,0.4,0.4,1,0.00,,,0.00,WUHU216HW,2015-07-29 08:46:00,
2015-07-29 04:51:00,74.9,14.7,30.00,NNE,23,0.0,0.4,1,0.00,,,0.00,WUHU216HW,2015-07-29 08:51:00,
2015-07-29 04:56:00,74.9,14.7,30.00,NNE,23,0.0,0.4,1,0.00,,,0.00,WUHU216HW,2015-07-29 08:56:00,
2015-07-29 05:01:00,74.9,14.7,30.01,NNE,23,0.2,0.2,1,0.00,,,0.00,WUHU216HW,2015-07-29 09:01:00,
2015-07-29 05:06:00,74.9,14.7,30.01,NNE,23,0.4,0.4,1,0.00,,,0.00,WUHU216HW,2015-07-29 09:06:00,
2015-07-29 05:11:00,74.9,14.7,30.01,NNE,23,0.0,0.4,1,0.00,,,0.00,WUHU216HW,2015-07-29 09:11:00,
2015-07-29 05:16:00,74.9,14.7,30.01,NNE,23,0.0,0.4,1,0.00,,,0.00,WUHU216HW,2015-07-29 09:16:00,
2015-07-29 05:21:00,74.9,14.7,30.01,NNE,23,0.0,0.2,1,0.00,,,0.00,WUHU216HW,2015-07-29 09:21:00,
2015-07-29 05:25:00,74.9,14.7,30.02,NNE,23,0.0,0.2,1,0.00,,,0.00,WUHU216HW,2015-07-29 09:25:00,
2015-07-29 05:30:00,74.9,14.7,30.02,NNE,23,0.7,1.1,1,0.00,,,0.00,WUHU216HW,2015-07-29 09:30:00,
2015-07-29 05:35:00,75.1,14.9,30.02,North,0,0.0,1.1,1,0.00,,,0.00,WUHU216HW,2015-07-29 09:35:00,
2015-07-29 05:40:00,75.1,14.9,30.02,North,0,0.0,0.9,1,0.00,,,0.00,WUHU216HW,2015-07-29 09:40:00,
2015-07-29 05:45:00,75.1,14.9,30.02,North,0,0.0,0.0,1,0.00,,,0.00,WUHU216HW,2015-07-29 09:45:00,
2015-07-29 05:50:00,75.1,14.9,30.02,North,0,0.0,0.0,1,0.00,,,0.00,WUHU216HW,2015-07-29 09:50:00,
2015-07-29 05:55:00,74.9,14.7,30.02,North,0,0.0,0.0,1,0.00,,,0.00,WUHU216HW,2015-07-29 09:55:00,
2015-07-29 06:00:00,74.9,14.7,30.02,North,0,0.0,0.0,1,0.00,,,0.00,WUHU216HW,2015-07-29 10:00:00,
2015-07-29 06:05:00,74.9,14.7,30.02,North,0,0.2,0.2,1,0.00,,,0.00,WUHU216HW,2015-07-29 10:05:00,
2015-07-29 06:10:00,74.9,14.7,30.02,North,0,0.0,0.2,1,0.00,,,0.00,WUHU216HW,2015-07-29 10:10:00,
2015-07-29 06:15:00,74.9,14.7,30.02,North,0,0.0,0.2,1,0.00,,,0.00,WUHU216HW,2015-07-29 10:15:00,
2015-07-29 06:20:00,74.9,14.7,30.02,North,0,0.0,0.0,1,0.00,,,0.00,WUHU216HW,2015-07-29 10:20:00,
2015-07-29 06:25:00,74.9,14.7,30.02,North,0,0.0,0.0,1,0.00,,,0.00,WUHU216HW,2015-07-29 10:25:00,
2015-07-29 06:30:00,75.1,14.9,30.02,North,0,0.0,0.0,1,0.00,,,0.00,WUHU216HW,2015-07-29 10:30:00,
2015-07-29 06:35:00,75.1,14.9,30.02,North,0,0.0,0.0,1,0.00,,,0.00,WUHU216HW,2015-07-29 10:35:00,
2015-07-29 06:40:00,75.2,14.9,30.02,North,0,0.0,0.0,1,0.00,,,0.00,WUHU216HW,2015-07-29 10:40:00,
2015-07-29 06:45:00,75.2,14.9,30.02,North,0,0.0,0.0,1,0.00,,,0.00,WUHU216HW,2015-07-29 10:45:00,
2015-07-29 06:50:00,75.2,14.9,30.02,North,0,0.0,0.0,1,0.00,,,0.00,WUHU216HW,2015-07-29 10:50:00,
2015-07-29 06:55:00,75.2,14.9,30.02,North,0,0.0,0.0,1,0.00,,,0.00,WUHU216HW,2015-07-29 10:55:00,
2015-07-29 07:00:00,75.6,15.2,30.01,North,0,0.0,0.2,1,0.00,,,0.00,WUHU216HW,2015-07-29 11:00:00,
2015-07-29 07:02:00,75.6,15.2,30.01,North,0,0.0,0.0,1,0.00,,,0.00,WUHU216HW,2015-07-29 11:02:00,
2015-07-29 07:05:00,75.6,15.2,30.01,North,0,0.0,0.2,1,0.00,,,0.00,WUHU216HW,2015-07-29 11:05:00,
2015-07-29 07:10:00,75.6,15.2,30.01,North,0,0.0,0.0,1,0.00,,,0.00,WUHU216HW,2015-07-29 11:10:00,
2015-07-29 07:32:00,77.0,16.4,30.02,NE,45,0.0,0.0,1,0.00,,,0.00,WUHU216HW,2015-07-29 11:32:00,
2015-07-29 07:37:00,77.0,16.4,30.02,NE,45,0.0,0.7,1,0.00,,,0.00,WUHU216HW,2015-07-29 11:37:00,
2015-07-29 07:42:00,77.4,16.7,30.02,NNE,23,0.0,0.7,1,0.00,,,0.00,WUHU216HW,2015-07-29 11:42:00,
2015-07-29 07:47:00,77.6,16.7,30.02,NNE,23,0.4,0.4,1,0.00,,,0.00,WUHU216HW,2015-07-29 11:47:00,
2015-07-29 07:52:00,77.8,16.9,30.03,NNE,23,0.0,0.4,1,0.00,,,0.00,WUHU216HW,2015-07-29 11:52:00,
2015-07-29 07:57:00,78.1,17.1,30.03,NE,45,1.1,1.1,1,0.00,,,0.00,WUHU216HW,2015-07-29 11:57:00,
2015-07-29 08:02:00,78.3,17.3,30.03,NE,45,0.4,1.1,1,0.00,,,0.00,WUHU216HW,2015-07-29 12:02:00,
2015-07-29 08:07:00,78.8,17.6,30.03,NE,45,0.9,1.6,1,0.00,,,0.00,WUHU216HW,2015-07-29 12:07:00,
2015-07-29 08:12:00,79.2,17.9,30.03,East,90,2.2,2.2,1,0.00,,,0.00,WUHU216HW,2015-07-29 12:12:00,
2015-07-29 08:17:00,79.2,17.9,30.03,NE,45,0.0,2.2,1,0.00,,,0.00,WUHU216HW,2015-07-29 12:17:00,
2015-07-29 08:22:00,79.4,18.1,30.04,NNW,338,0.0,2.2,1,0.00,,,0.00,WUHU216HW,2015-07-29 12:22:00,
2015-07-29 08:27:00,79.9,18.6,30.04,NE,45,0.0,0.0,1,0.00,,,0.00,WUHU216HW,2015-07-29 12:27:00,
2015-07-29 08:32:00,80.5,18.9,30.04,WSW,248,0.0,0.0,1,0.00,,,0.00,WUHU216HW,2015-07-29 12:32:00,
2015-07-29 08:37:00,80.6,19.1,30.04,ENE,68,0.0,0.0,1,0.00,,,0.00,WUHU216HW,2015-07-29 12:37:00,
2015-07-29 08:42:00,80.6,19.1,30.04,NNE,23,3.6,3.6,1,0.00,,,0.00,WUHU216HW,2015-07-29 12:42:00,
2015-07-29 08:47:00,80.6,19.1,30.04,NE,45,0.7,3.6,1,0.00,,,0.00,WUHU216HW,2015-07-29 12:47:00,
2015-07-29 08:52:00,80.5,18.9,30.04,NNE,23,0.4,3.6,1,0.00,,,0.00,WUHU216HW,2015-07-29 12:52:00,
2015-07-29 08:57:00,80.5,18.9,30.04,East,90,1.1,1.1,1,0.00,,,0.00,WUHU216HW,2015-07-29 12:57:00,
2015-07-29 09:02:00,80.3,18.8,30.04,NE,45,2.0,3.6,1,0.00,,,0.00,WUHU216HW,2015-07-29 13:02:00,
2015-07-29 09:07:00,79.9,18.6,30.04,NNE,23,1.1,3.6,1,0.00,,,0.00,WUHU216HW,2015-07-29 13:07:00,
2015-07-29 09:12:00,80.3,18.8,30.04,NNE,23,0.4,2.0,1,0.00,,,0.00,WUHU216HW,2015-07-29 13:12:00,
2015-07-29 09:17:00,80.6,19.1,30.04,ESE,113,0.4,1.6,1,0.00,,,0.00,WUHU216HW,2015-07-29 13:17:00,
2015-07-29 09:22:00,81.0,19.4,30.04,NNE,23,1.3,1.3,1,0.00,,,0.00,WUHU216HW,2015-07-29 13:22:00,
2015-07-29 09:27:00,81.4,19.6,30.04,NE,45,0.4,1.3,1,0.00,,,0.00,WUHU216HW,2015-07-29 13:27:00,
2015-07-29 09:32:00,81.7,20.0,30.04,NE,45,3.8,4.5,1,0.00,,,0.00,WUHU216HW,2015-07-29 13:32:00,
2015-07-29 09:37:00,82.1,20.3,30.04,NNW,338,2.0,4.5,1,0.00,,,0.00,WUHU216HW,2015-07-29 13:37:00,
2015-07-29 09:42:00,82.4,20.5,30.04,NE,45,1.1,2.0,1,0.00,,,0.00,WUHU216HW,2015-07-29 13:42:00,
2015-07-29 09:47:00,82.8,20.8,30.03,NE,45,0.4,1.3,1,0.00,,,0.00,WUHU216HW,2015-07-29 13:47:00,
2015-07-29 09:52:00,83.0,20.9,30.03,NNE,23,1.8,1.8,1,0.00,,,0.00,WUHU216HW,2015-07-29 13:52:00,
2015-07-29 09:57:00,83.2,21.1,30.03,ENE,68,2.9,2.9,1,0.00,,,0.00,WUHU216HW,2015-07-29 13:57:00,
2015-07-29 10:02:00,83.3,21.2,30.03,ESE,113,1.6,2.9,1,0.00,,,0.00,WUHU216HW,2015-07-29 14:02:00,
2015-07-29 10:07:00,83.5,21.2,30.03,NNW,338,2.2,2.9,1,0.00,,,0.00,WUHU216HW,2015-07-29 14:07:00,
2015-07-29 10:12:00,83.9,21.5,30.03,WSW,248,1.1,2.2,1,0.00,,,0.00,WUHU216HW,2015-07-29 14:12:00,
2015-07-29 10:27:00,85.1,22.5,30.03,West,270,0.2,1.8,1,0.00,,,0.00,WUHU216HW,2015-07-29 14:27:00,
2015-07-29 10:32:00,85.3,22.7,30.03,WSW,248,0.9,1.1,1,0.00,,,0.00,WUHU216HW,2015-07-29 14:32:00,
2015-07-29 10:37:00,86.0,23.2,30.03,SSW,203,0.4,1.6,1,0.00,,,0.00,WUHU216HW,2015-07-29 14:37:00,
2015-07-29 10:42:00,85.9,23.0,30.04,East,90,2.0,2.0,1,0.00,,,0.00,WUHU216HW,2015-07-29 14:42:00,
2015-07-29 10:47:00,85.9,23.0,30.03,NNE,23,1.6,2.0,1,0.00,,,0.00,WUHU216HW,2015-07-29 14:47:00,
2015-07-29 10:52:00,85.7,23.0,30.03,ENE,68,0.4,2.0,1,0.00,,,0.00,WUHU216HW,2015-07-29 14:52:00,
2015-07-29 10:57:00,85.7,23.0,30.03,NE,45,0.2,1.8,1,0.00,,,0.00,WUHU216HW,2015-07-29 14:57:00,
2015-07-29 11:02:00,86.0,23.2,30.03,NE,45,3.4,3.4,1,0.00,,,0.00,WUHU216HW,2015-07-29 15:02:00,
2015-07-29 11:07:00,86.0,23.2,30.03,NNE,23,2.5,4.5,1,0.00,,,0.00,WUHU216HW,2015-07-29 15:07:00,
2015-07-29 11:12:00,86.4,23.5,30.03,SW,225,1.3,4.5,1,0.00,,,0.00,WUHU216HW,2015-07-29 15:12:00,
2015-07-29 11:17:00,86.8,23.8,30.03,NNE,23,2.0,3.4,1,0.00,,,0.00,WUHU216HW,2015-07-29 15:17:00,
2015-07-29 11:22:00,87.7,24.5,30.04,ESE,113,2.2,3.4,1,0.00,,,0.00,WUHU216HW,2015-07-29 15:22:00,
2015-07-29 11:27:00,88.2,24.9,30.04,ENE,68,0.4,2.2,1,0.00,,,0.00,WUHU216HW,2015-07-29 15:27:00,
2015-07-29 11:32:00,88.7,25.3,30.04,WNW,293,0.4,1.3,1,0.00,,,0.00,WUHU216HW,2015-07-29 15:32:00,
2015-07-29 11:37:00,89.3,25.7,30.04,NNW,338,1.1,2.0,1,0.00,,,0.00,WUHU216HW,2015-07-29 15:37:00,
2015-07-29 11:42:00,89.5,25.8,30.04,NNE,23,4.0,4.0,1,0.00,,,0.00,WUHU216HW,2015-07-29 15:42:00,
2015-07-29 11:47:00,89.6,25.9,30.04,ESE,113,2.0,4.0,1,0.00,,,0.00,WUHU216HW,2015-07-29 15:47:00,
2015-07-29 11:52:00,90.0,26.2,30.03,NE,45,1.8,4.0,1,0.00,,,0.00,WUHU216HW,2015-07-29 15:52:00,
2015-07-29 11:57:00,90.0,26.2,30.03,NE,45,1.1,3.8,1,0.00,,,0.00,WUHU216HW,2015-07-29 15:57:00,
2015-07-29 12:02:00,90.2,26.4,30.03,SSW,203,1.1,1.8,1,0.00,,,0.00,WUHU216HW,2015-07-29 16:02:00,
2015-07-29 12:07:00,90.0,26.2,30.03,NW,315,2.0,2.0,1,0.00,,,0.00,WUHU216HW,2015-07-29 16:07:00,
2015-07-29 12:08:00,89.5,25.8,30.03,NE,45,1.8,1.8,1,0.00,,,0.00,WUHU216HW,2015-07-29 16:08:00,
2015-07-29 12:12:00,89.5,25.8,30.03,NE,45,1.8,2.0,1,0.00,,,0.00,WUHU216HW,2015-07-29 16:12:00,
2015-07-29 12:17:00,89.5,25.8,30.03,NE,45,1.8,2.0,1,0.00,,,0.00,WUHU216HW,2015-07-29 16:17:00,
2015-07-29 12:38:00,89.3,25.7,30.03,NE,45,3.1,3.1,1,0.00,,,0.00,WUHU216HW,2015-07-29 16:38:00,
2015-07-29 12:43:00,89.5,25.8,30.03,WSW,248,0.4,3.1,1,0.00,,,0.00,WUHU216HW,2015-07-29 16:43:00,
2015-07-29 12:48:00,89.5,25.8,30.03,NNE,23,3.1,3.1,1,0.00,,,0.00,WUHU216HW,2015-07-29 16:48:00,
2015-07-29 12:53:00,90.0,26.2,30.02,SSE,158,0.7,3.1,1,0.00,,,0.00,WUHU216HW,2015-07-29 16:53:00,
2015-07-29 12:58:00,90.2,26.4,30.02,ESE,113,1.3,1.3,1,0.00,,,0.00,WUHU216HW,2015-07-29 16:58:00,
2015-07-29 13:03:00,89.8,26.1,30.02,NNE,23,3.4,4.0,1,0.00,,,0.00,WUHU216HW,2015-07-29 17:03:00,
2015-07-29 13:08:00,89.8,26.1,30.02,ENE,68,1.8,4.0,1,0.00,,,0.00,WUHU216HW,2015-07-29 17:08:00,
2015-07-29 13:13:00,89.8,26.1,30.02,NE,45,1.6,3.4,1,0.00,,,0.00,WUHU216HW,2015-07-29 17:13:00,
2015-07-29 13:18:00,90.0,26.2,30.02,North,0,1.1,1.8,1,0.00,,,0.00,WUHU216HW,2015-07-29 17:18:00,
2015-07-29 13:23:00,90.2,26.4,30.02,NNE,23,3.4,3.4,1,0.00,,,0.00,WUHU216HW,2015-07-29 17:23:00,
2015-07-29 13:28:00,90.4,26.5,30.01,WNW,293,2.9,3.4,1,0.00,,,0.00,WUHU216HW,2015-07-29 17:28:00,
2015-07-29 13:33:00,90.4,26.5,30.02,NE,45,2.5,2.9,1,0.00,,,0.00,WUHU216HW,2015-07-29 17:33:00,
2015-07-29 13:38:00,90.7,26.8,30.01,West,270,2.7,2.9,1,0.00,,,0.00,WUHU216HW,2015-07-29 17:38:00,
2015-07-29 13:43:00,90.7,26.8,30.01,NNE,23,2.5,2.9,1,0.00,,,0.00,WUHU216HW,2015-07-29 17:43:00,
2015-07-29 13:48:00,91.1,27.1,30.01,SW,225,0.4,2.7,1,0.00,,,0.00,WUHU216HW,2015-07-29 17:48:00,
2015-07-29 13:53:00,91.4,27.4,30.01,East,90,1.8,2.5,1,0.00,,,0.00,WUHU216HW,2015-07-29 17:53:00,
2015-07-29 13:58:00,91.4,27.4,30.01,NNE,23,2.7,2.7,1,0.00,,,0.00,WUHU216HW,2015-07-29 17:58:00,
2015-07-29 14:03:00,91.4,27.4,30.01,NW,315,5.1,5.1,1,0.00,,,0.00,WUHU216HW,2015-07-29 18:03:00,
2015-07-29 14:08:00,91.6,27.5,30.01,SSE,158,4.0,5.1,1,0.00,,,0.00,WUHU216HW,2015-07-29 18:08:00,
2015-07-29 14:13:00,91.8,27.6,30.00,NW,315,1.8,6.5,1,0.00,,,0.00,WUHU216HW,2015-07-29 18:13:00,
2015-07-29 14:18:00,91.8,27.6,30.00,North,0,3.4,6.5,1,0.00,,,0.00,WUHU216HW,2015-07-29 18:18:00,
2015-07-29 14:23:00,92.2,27.9,30.00,NE,45,0.9,3.4,1,0.00,,,0.00,WUHU216HW,2015-07-29 18:23:00,
2015-07-29 14:28:00,92.2,27.9,30.00,ENE,68,1.6,3.1,1,0.00,,,0.00,WUHU216HW,2015-07-29 18:28:00,
2015-07-29 14:33:00,92.2,27.9,30.00,NNE,23,3.1,3.1,1,0.00,,,0.00,WUHU216HW,2015-07-29 18:33:00,
2015-07-29 14:38:00,92.0,27.7,30.00,NNE,23,1.3,4.9,1,0.00,,,0.00,WUHU216HW,2015-07-29 18:38:00,
2015-07-29 14:43:00,92.2,27.9,30.00,South,180,1.1,4.9,1,0.00,,,0.00,WUHU216HW,2015-07-29 18:43:00,
2015-07-29 14:48:00,92.0,27.7,30.00,NNE,23,1.8,5.1,1,0.00,,,0.00,WUHU216HW,2015-07-29 18:48:00,
2015-07-29 14:53:00,91.8,27.6,30.00,SW,225,0.9,5.1,1,0.00,,,0.00,WUHU216HW,2015-07-29 18:53:00,
2015-07-29 14:58:00,91.8,27.6,30.00,SW,225,0.9,0.9,1,0.00,,,0.00,WUHU216HW,2015-07-29 18:58:00,
2015-07-29 15:03:00,90.9,26.9,30.00,ENE,68,1.3,4.9,1,0.00,,,0.00,WUHU216HW,2015-07-29 19:03:00,
2015-07-29 15:08:00,91.1,27.1,29.99,NNE,23,5.4,5.4,1,0.00,,,0.00,WUHU216HW,2015-07-29 19:08:00,
2015-07-29 15:13:00,91.1,27.1,29.99,NNE,23,4.3,5.4,1,0.00,,,0.00,WUHU216HW,2015-07-29 19:13:00,
2015-07-29 15:18:00,91.4,27.4,29.99,West,270,2.9,5.4,1,0.00,,,0.00,WUHU216HW,2015-07-29 19:18:00,
2015-07-29 15:23:00,91.8,27.6,29.99,NNE,23,0.4,2.9,1,0.00,,,0.00,WUHU216HW,2015-07-29 19:23:00,
2015-07-29 15:28:00,91.8,27.6,29.99,NNE,23,2.5,2.9,1,0.00,,,0.00,WUHU216HW,2015-07-29 19:28:00,
2015-07-29 15:33:00,91.8,27.6,29.99,West,270,1.1,4.7,1,0.00,,,0.00,WUHU216HW,2015-07-29 19:33:00,
2015-07-29 15:38:00,91.8,27.6,29.99,NE,45,1.6,4.7,1,0.00,,,0.00,WUHU216HW,2015-07-29 19:38:00,
2015-07-29 15:53:00,92.0,27.7,29.99,NE,45,4.5,4.5,1,0.00,,,0.00,WUHU216HW,2015-07-29 19:53:00,
2015-07-29 15:58:00,91.6,27.5,29.99,NE,45,1.1,4.5,1,0.00,,,0.00,WUHU216HW,2015-07-29 19:58:00,
2015-07-29 16:03:00,91.6,27.5,29.99,NE,45,5.6,5.6,1,0.00,,,0.00,WUHU216HW,2015-07-29 20:03:00,
2015-07-29 16:08:00,91.6,27.5,29.99,NE,45,5.8,5.8,1,0.00,,,0.00,WUHU216HW,2015-07-29 20:08:00,
2015-07-29 16:13:00,91.8,27.6,29.99,ENE,68,5.8,5.8,1,0.00,,,0.00,WUHU216HW,2015-07-29 20:13:00,
2015-07-29 16:18:00,92.0,27.7,29.99,North,0,5.8,5.8,1,0.00,,,0.00,WUHU216HW,2015-07-29 20:18:00,
2015-07-29 16:23:00,92.2,27.9,29.99,ENE,68,2.9,5.8,1,0.00,,,0.00,WUHU216HW,2015-07-29 20:23:00,
2015-07-29 16:28:00,92.0,27.7,29.98,ESE,113,2.5,5.8,1,0.00,,,0.00,WUHU216HW,2015-07-29 20:28:00,
2015-07-29 16:38:00,91.8,27.6,29.99,WSW,248,0.4,1.8,1,0.00,,,0.00,WUHU216HW,2015-07-29 20:38:00,
2015-07-29 16:43:00,91.8,27.6,29.99,SW,225,3.4,3.4,1,0.00,,,0.00,WUHU216HW,2015-07-29 20:43:00,
2015-07-29 16:48:00,91.8,27.6,29.98,South,180,2.9,3.4,1,0.00,,,0.00,WUHU216HW,2015-07-29 20:48:00,
2015-07-29 16:53:00,91.1,27.1,29.98,East,90,3.6,3.6,1,0.00,,,0.00,WUHU216HW,2015-07-29 20:53:00,
2015-07-29 16:58:00,91.3,27.2,29.98,North,0,1.6,3.6,1,0.00,,,0.00,WUHU216HW,2015-07-29 20:58:00,
2015-07-29 17:03:00,91.4,27.4,29.97,ENE,68,1.6,2.7,1,0.00,,,0.00,WUHU216HW,2015-07-29 21:03:00,
2015-07-29 17:08:00,91.4,27.4,29.97,NE,45,2.7,2.7,1,0.00,,,0.00,WUHU216HW,2015-07-29 21:08:00,
2015-07-29 17:09:00,91.4,27.4,29.97,NE,45,2.7,2.7,1,0.00,,,0.00,WUHU216HW,2015-07-29 21:09:00,
2015-07-29 17:13:00,91.4,27.4,29.97,NE,45,2.7,2.7,1,0.00,,,0.00,WUHU216HW,2015-07-29 21:13:00,
2015-07-29 17:18:00,91.4,27.4,29.97,NE,45,2.7,2.7,1,0.00,,,0.00,WUHU216HW,2015-07-29 21:18:00,